NCAR-RAP Real-Time Weather Data

Output produced by METARs form (23 February 2020  00:49 UTC)
found at http://weather.rap.ucar.edu/surface/
 
KHFD 222353Z 00000KT 10SM CLR 03/M09 A3016 RMK AO2 SLP214 T00281089 10089 20028 53017
KHFD 222253Z 00000KT 10SM CLR 06/M12 A3014 RMK AO2 SLP206 T00611117
KHFD 222153Z 27010G14KT 10SM CLR 08/M12 A3013 RMK AO2 SLP201 T00831122
KHFD 222053Z 26004KT 10SM CLR 09/M12 A3012 RMK AO2 SLP198 T00891122 56012
KHFD 221953Z 31007KT 10SM CLR 09/M13 A3012 RMK AO2 SLP199 T00891128
KHFD 221853Z 23007KT 10SM CLR 08/M13 A3013 RMK AO2 SLP201 T00781128
KHFD 221753Z 24007KT 10SM CLR 07/M13 A3015 RMK AO2 SLP210 T00721133 10072 21056 58031
KHFD 221653Z VRB06KT 10SM CLR 06/M13 A3020 RMK AO2 SLP225 T00561133
KHFD 221553Z VRB04KT 10SM CLR 04/M13 A3022 RMK AO2 SLP233 T00391128
KHFD 221453Z 28007KT 10SM CLR 02/M13 A3024 RMK AO2 SLP241 T00221128 58000
KHFD 221353Z 20004KT 10SM CLR 00/M12 A3026 RMK AO2 SLP245 T00001117
KHFD 221253Z 16005KT 10SM CLR M02/M11 A3026 RMK AO2 SLP245 T10221106
KHFD 221153Z 17005KT 10SM CLR M04/M12 A3024 RMK AO2 SLP241 T10441117 11017 21044 52007
KHFD 221053Z 19004KT 10SM CLR M04/M12 A3023 RMK AO2 SLP238 T10391122
KHFD 220953Z AUTO 19004KT 10SM CLR M03/M13 A3023 RMK AO2 SLP237 T10331133
KHFD 220853Z AUTO 17004KT 10SM CLR M03/M13 A3022 RMK AO2 SLP234 T10281128 56019
KHFD 220753Z AUTO 19004KT 10SM CLR M02/M14 A3023 RMK AO2 SLP237 T10221139
KHFD 220653Z AUTO 19006KT 10SM CLR M03/M14 A3025 RMK AO2 SLP244 T10281139
KHFD 220553Z AUTO 17005KT 10SM CLR M03/M13 A3028 RMK AO2 SLP252 T10331133 11011 21039 56022
KHFD 220453Z 18005KT 10SM CLR M03/M14 A3029 RMK AO2 SLP258 T10331139 400111089
KHFD 220353Z 18007KT 10SM CLR M03/M14 A3031 RMK AO2 SLP264 T10281139
KHFD 220253Z 18005KT 10SM CLR M03/M14 A3034 RMK AO2 SLP274 T10331139 58013
KHFD 220153Z 18005KT 10SM CLR M03/M14 A3035 RMK AO2 SLP278 T10281144
KHFD 220053Z 19004KT 10SM CLR M02/M17 A3037 RMK AO2 SLP284 T10171167
KHFD 212353Z 21004KT 10SM CLR M01/M17 A3038 RMK AO2 SLP287 T10111172 10011 21017 56002
KHFD 212253Z 27004KT 10SM CLR 00/M19 A3038 RMK AO2 SLP287 T00001189
KHFD 212153Z 28006KT 10SM CLR 01/M20 A3038 RMK AO2 SLP287 T00061200
KHFD 212053Z VRB03KT 10SM CLR 01/M18 A3039 RMK AO2 SLP289 T00061183 56020
KHFD 211953Z 18004KT 10SM CLR 00/M18 A3040 RMK AO2 SLP294 T00001178
KHFD 211853Z 15004KT 10SM CLR M01/M17 A3042 RMK AO2 SLP300 T10061172
KHFD 211753Z VRB03KT 10SM CLR M02/M17 A3044 RMK AO2 SLP309 T10171172 11017 21083 58023
KHFD 211653Z 01004KT 10SM CLR M02/M18 A3048 RMK AO2 SLP322 T10221178
KHFD 211553Z 01007KT 10SM CLR M04/M17 A3050 RMK AO2 SLP328 T10391167
KHFD 211453Z 34007KT 10SM CLR M04/M17 A3051 RMK AO2 SLP331 T10441167 51012
KHFD 211353Z 01012KT 10SM CLR M06/M17 A3051 RMK AO2 SLP330 T10611172
KHFD 211253Z 34010KT 10SM CLR M07/M16 A3050 RMK AO2 SLP326 T10721161
KHFD 211153Z 36007KT 10SM CLR M08/M16 A3048 RMK AO2 SLP319 T10831161 11061 21089 53006
KHFD 211053Z 03005KT 10SM CLR M08/M16 A3046 RMK AO2 SLP314 T10831161
KHFD 210953Z AUTO 35005KT 10SM CLR M08/M16 A3046 RMK AO2 SLP313 T10781161
KHFD 210853Z AUTO 35005KT 10SM CLR M07/M16 A3046 RMK AO2 SLP314 T10721161 50000
KHFD 210753Z AUTO 35005KT 10SM CLR M07/M16 A3046 RMK AO2 SLP315 T10721161
KHFD 210653Z AUTO 35006KT 10SM CLR M07/M16 A3047 RMK AO2 SLP316 T10671161
KHFD 210553Z AUTO 35005KT 10SM CLR M06/M17 A3046 RMK AO2 SLP313 T10611167 11017 21061 58003
KHFD 210453Z 36009KT 10SM CLR M06/M16 A3046 RMK AO2 SLP315 T10561161 400221056
KHFD 210353Z 36007KT 10SM CLR M06/M16 A3047 RMK AO2 SLP319 T10561156
KHFD 210253Z 33008KT 10SM CLR M04/M16 A3047 RMK AO2 SLP316 T10441161 51016
KHFD 210153Z 34009G17KT 10SM CLR M04/M15 A3045 RMK AO2 SLP311 T10391150
KHFD 210053Z 35010KT 10SM CLR M03/M14 A3044 RMK AO2 SLP306 T10281144